createdAt,value
2022-10-15T00:00:39.223Z,18.13
2022-10-15T00:03:07.513Z,26.93
2022-10-15T00:05:38.269Z,26.37
2022-10-15T00:08:06.929Z,20.67
2022-10-15T00:10:35.360Z,17.57
2022-10-15T00:13:05.005Z,19.97
2022-10-15T00:15:33.778Z,22.07
2022-10-15T00:18:02.054Z,22.00
2022-10-15T00:20:30.411Z,27.50
2022-10-15T00:22:59.004Z,26.60
2022-10-15T00:25:27.292Z,23.63
2022-10-15T00:27:55.633Z,34.83
2022-10-15T00:30:25.249Z,11.87
2022-10-15T00:32:53.498Z,27.00
2022-10-15T00:35:21.785Z,27.83
2022-10-15T00:37:50.100Z,31.30
2022-10-15T00:40:20.005Z,26.83
2022-10-15T00:42:48.315Z,29.97
2022-10-15T00:45:17.642Z,28.47
2022-10-15T00:47:49.316Z,24.37
2022-10-15T00:50:19.156Z,30.33
2022-10-15T00:52:50.577Z,22.73
2022-10-15T00:55:23.542Z,29.03
2022-10-15T00:57:52.532Z,33.73
2022-10-15T01:00:21.387Z,32.77
2022-10-15T01:02:51.157Z,34.60
2022-10-15T01:05:19.901Z,37.30
2022-10-15T01:07:48.276Z,35.43
2022-10-15T01:10:16.800Z,35.97
2022-10-15T01:12:55.825Z,34.37
2022-10-15T01:15:26.861Z,38.77
2022-10-15T01:17:58.715Z,22.57
2022-10-15T01:20:46.534Z,19.13
2022-10-15T01:23:32.883Z,37.77
2022-10-15T01:26:08.279Z,40.17
2022-10-15T01:28:44.301Z,35.20
2022-10-15T01:31:16.710Z,38.27
2022-10-15T01:33:47.063Z,40.90
2022-10-15T01:36:18.215Z,42.47
2022-10-15T01:38:53.268Z,39.77
2022-10-15T01:41:24.652Z,35.27
2022-10-15T01:43:56.899Z,45.67
2022-10-15T01:46:28.439Z,40.00
2022-10-15T01:48:58.505Z,41.83
2022-10-15T01:51:27.229Z,33.13
2022-10-15T01:53:55.586Z,41.63
2022-10-15T01:56:25.048Z,51.03
2022-10-15T01:58:54.823Z,42.97
2022-10-15T02:01:23.375Z,32.13
2022-10-15T02:03:53.623Z,42.83
2022-10-15T02:06:25.025Z,15.30
2022-10-15T02:09:00.119Z,9.83
2022-10-15T02:11:28.603Z,31.90
2022-10-15T02:14:00.738Z,34.60
2022-10-15T02:16:31.567Z,45.37
2022-10-15T02:19:02.486Z,48.77
2022-10-15T02:21:32.574Z,31.90
2022-10-15T02:24:05.213Z,22.50
2022-10-15T02:26:35.301Z,48.83
2022-10-15T02:29:05.148Z,44.83
2022-10-15T02:31:35.542Z,52.60
2022-10-15T02:34:06.971Z,55.00
2022-10-15T02:36:35.598Z,34.63
2022-10-15T02:39:05.597Z,49.37
2022-10-15T02:41:35.631Z,38.47
2022-10-15T02:44:04.194Z,48.40
2022-10-15T02:46:32.609Z,55.70
2022-10-15T02:49:00.816Z,62.90
2022-10-15T02:51:32.882Z,38.53
2022-10-15T02:54:01.684Z,49.97
2022-10-15T02:59:03.300Z,52.57
2022-10-15T03:01:31.669Z,59.10
2022-10-15T03:04:00.171Z,54.43
2022-10-15T03:06:29.831Z,64.83
2022-10-15T03:08:58.161Z,43.73
2022-10-15T03:11:29.344Z,43.33
2022-10-15T03:13:57.638Z,48.13
2022-10-15T03:16:27.981Z,40.50
2022-10-15T03:18:56.304Z,61.10
2022-10-15T03:21:24.627Z,76.77
2022-10-15T03:23:54.416Z,33.47
2022-10-15T03:26:22.922Z,52.97
2022-10-15T03:28:51.302Z,35.50
2022-10-15T03:31:19.651Z,47.10
2022-10-15T03:33:47.906Z,65.40
2022-10-15T03:36:16.200Z,67.90
2022-10-15T03:38:44.528Z,61.73
2022-10-15T03:41:14.190Z,62.30
2022-10-15T03:43:43.068Z,54.73
2022-10-15T03:46:11.591Z,54.10
2022-10-15T03:48:40.075Z,62.77
2022-10-15T03:51:08.414Z,56.00
2022-10-15T03:53:36.756Z,47.80
2022-10-15T03:56:05.851Z,72.97
2022-10-15T03:58:35.637Z,70.57
2022-10-15T04:01:04.017Z,68.47
2022-10-15T04:03:32.300Z,47.07
2022-10-15T04:06:01.271Z,61.83
2022-10-15T04:08:31.638Z,60.53
2022-10-15T04:11:00.273Z,38.00
2022-10-15T04:13:29.043Z,65.53
2022-10-15T04:15:58.651Z,57.83
2022-10-15T04:18:26.927Z,31.00
2022-10-15T04:20:55.257Z,58.40
2022-10-15T04:23:23.537Z,64.43
2022-10-15T04:25:51.907Z,54.17
2022-10-15T04:28:20.254Z,50.23
2022-10-15T04:30:48.603Z,66.30
2022-10-15T04:33:18.273Z,57.30
2022-10-15T04:35:46.626Z,57.23
2022-10-15T04:38:14.941Z,64.47
2022-10-15T04:40:43.306Z,62.83
2022-10-15T04:43:11.596Z,63.43
2022-10-15T04:45:39.887Z,45.87
2022-10-15T04:48:08.168Z,14.53
2022-10-15T04:50:37.787Z,50.83
2022-10-15T04:53:06.151Z,60.43
2022-10-15T04:55:34.419Z,74.57
2022-10-15T04:58:02.681Z,61.90
2022-10-15T05:00:31.055Z,39.00
2022-10-15T05:03:00.157Z,49.63
2022-10-15T05:05:28.470Z,70.23
2022-10-15T05:08:00.691Z,60.47
2022-10-15T05:10:29.022Z,71.10
2022-10-15T05:12:57.320Z,63.30
2022-10-15T05:15:27.223Z,65.00
2022-10-15T05:17:56.104Z,89.17
2022-10-15T05:20:24.407Z,92.50
2022-10-15T05:22:52.701Z,75.97
2022-10-15T05:25:22.704Z,83.67
2022-10-15T05:27:51.016Z,71.53
2022-10-15T05:30:19.411Z,80.97
2022-10-15T05:32:47.798Z,88.87
2022-10-15T05:35:16.166Z,82.03
2022-10-15T05:37:46.853Z,77.73
2022-10-15T05:40:18.322Z,72.13
2022-10-15T05:45:22.720Z,67.13
2022-10-15T05:47:51.164Z,76.30
2022-10-15T05:50:19.532Z,67.90
2022-10-15T05:52:47.933Z,80.83
2022-10-15T05:55:16.466Z,62.73
2022-10-15T05:57:44.803Z,75.17
2022-10-15T06:00:15.666Z,85.50
2022-10-15T06:02:44.101Z,60.10
2022-10-15T06:05:12.614Z,80.83
2022-10-15T06:07:40.983Z,66.27
2022-10-15T06:10:09.597Z,65.97
2022-10-15T06:12:39.140Z,75.57
2022-10-15T06:15:07.969Z,71.10
2022-10-15T06:17:37.694Z,69.73
2022-10-15T06:20:06.464Z,56.93
2022-10-15T06:22:34.942Z,47.73
2022-10-15T06:25:06.398Z,73.33
2022-10-15T06:27:34.717Z,66.30
2022-10-15T06:30:03.023Z,21.80
2022-10-15T06:32:31.353Z,75.70
2022-10-15T06:35:01.110Z,86.17
2022-10-15T06:37:30.732Z,85.37
2022-10-15T06:39:59.210Z,61.13
2022-10-15T06:42:27.596Z,61.93
2022-10-15T06:44:55.997Z,98.60
2022-10-15T06:47:24.655Z,74.23
2022-10-15T06:49:53.432Z,71.80
2022-10-15T06:52:23.833Z,70.93
2022-10-15T06:54:52.150Z,67.70
2022-10-15T06:57:20.556Z,71.23
2022-10-15T06:59:48.913Z,71.10
2022-10-15T07:02:17.811Z,81.93
2022-10-15T07:04:46.459Z,53.77
2022-10-15T07:07:15.101Z,68.80
2022-10-15T07:09:48.189Z,78.40
2022-10-15T07:12:16.548Z,46.67
2022-10-15T07:14:44.943Z,78.67
2022-10-15T07:17:13.235Z,54.27
2022-10-15T07:19:41.530Z,66.83
2022-10-15T07:22:09.887Z,54.63
2022-10-15T07:24:38.267Z,66.83
2022-10-15T07:27:18.186Z,37.33
2022-10-15T07:29:47.201Z,16.47
2022-10-15T07:32:15.586Z,86.47
2022-10-15T07:34:44.252Z,72.73
2022-10-15T07:37:12.618Z,88.10
2022-10-15T07:39:41.852Z,94.67
2022-10-15T07:44:39.998Z,87.70
2022-10-15T07:47:08.870Z,85.37
2022-10-15T07:49:37.193Z,71.87
2022-10-15T07:52:05.624Z,72.83
2022-10-15T07:54:34.670Z,63.83
2022-10-15T07:57:03.019Z,65.70
2022-10-15T07:59:32.819Z,66.87
2022-10-15T08:02:01.109Z,51.07
2022-10-15T08:04:29.807Z,39.53
2022-10-15T08:06:58.384Z,56.60
2022-10-15T08:09:26.754Z,43.30
2022-10-15T08:11:55.694Z,40.67
2022-10-15T08:14:24.076Z,44.30
2022-10-15T08:16:53.726Z,46.60
2022-10-15T08:19:22.139Z,44.17
2022-10-15T08:21:50.472Z,39.90
2022-10-15T08:24:18.822Z,36.27
2022-10-15T08:26:47.391Z,14.20
2022-10-15T08:29:15.879Z,43.90
2022-10-15T08:31:44.300Z,40.33
2022-10-15T08:34:14.090Z,36.20
2022-10-15T08:36:42.577Z,34.23
2022-10-15T08:39:11.173Z,37.70
2022-10-15T08:41:41.997Z,37.87
2022-10-15T08:44:14.493Z,44.77
2022-10-15T08:46:45.309Z,45.00
2022-10-15T08:49:18.321Z,43.00
2022-10-15T08:51:48.634Z,30.37
2022-10-15T08:54:18.746Z,43.07
2022-10-15T08:56:48.272Z,38.53
2022-10-15T08:59:22.163Z,43.80
2022-10-15T09:01:52.788Z,43.67
2022-10-15T09:06:59.525Z,38.93
2022-10-15T09:09:31.405Z,33.50
2022-10-15T09:12:04.883Z,35.07
2022-10-15T09:14:35.003Z,39.23
2022-10-15T09:17:05.953Z,42.67
2022-10-15T09:19:38.397Z,30.07
2022-10-15T09:22:06.822Z,61.40
2022-10-15T09:24:35.275Z,47.20
2022-10-15T09:27:08.027Z,63.30
2022-10-15T09:29:39.084Z,40.13
2022-10-15T09:32:14.171Z,50.33
2022-10-15T09:34:45.512Z,55.60
2022-10-15T09:37:18.164Z,25.53
2022-10-15T09:39:58.543Z,38.70
2022-10-15T09:42:30.831Z,43.33
2022-10-15T09:45:01.232Z,46.07
2022-10-15T09:47:30.993Z,44.17
2022-10-15T09:50:01.036Z,40.97
2022-10-15T09:52:36.494Z,37.07
2022-10-15T09:55:11.391Z,31.47
2022-10-15T09:57:40.348Z,33.93
2022-10-15T10:00:10.404Z,23.03
2022-10-15T10:02:38.911Z,27.03
2022-10-15T10:05:21.724Z,32.93
2022-10-15T10:07:50.081Z,7.53
2022-10-15T10:10:25.570Z,23.87
2022-10-15T10:12:54.635Z,33.37
2022-10-15T10:15:33.018Z,32.60
2022-10-15T10:18:01.820Z,21.70
2022-10-15T10:20:31.962Z,28.97
2022-10-15T10:23:01.191Z,27.23
2022-10-15T10:25:31.221Z,26.27
2022-10-15T10:28:01.046Z,27.37
2022-10-15T10:30:29.588Z,25.57
2022-10-15T10:32:58.550Z,16.10
2022-10-15T10:35:27.966Z,29.30
2022-10-15T10:37:57.780Z,23.77
2022-10-15T10:40:28.754Z,15.00
2022-10-15T10:43:12.385Z,21.03
2022-10-15T10:45:40.741Z,19.90
2022-10-15T10:48:23.644Z,21.77
2022-10-15T10:51:03.283Z,20.63
2022-10-15T10:53:33.174Z,18.87
2022-10-15T10:56:03.641Z,17.07
2022-10-15T10:58:33.642Z,16.60
2022-10-15T11:01:02.059Z,18.97
2022-10-15T11:03:33.367Z,13.43
2022-10-15T11:06:07.885Z,14.37
2022-10-15T11:08:40.341Z,10.50
2022-10-15T11:11:13.473Z,15.57
2022-10-15T11:13:47.181Z,15.70
2022-10-15T11:16:18.013Z,14.90
2022-10-15T11:18:55.058Z,6.60
2022-10-15T11:21:25.707Z,15.60
2022-10-15T11:24:03.663Z,15.77
2022-10-15T11:26:52.020Z,6.97
2022-10-15T11:29:32.350Z,11.43
2022-10-15T11:32:15.422Z,12.13
2022-10-15T11:34:51.532Z,9.57
2022-10-15T11:37:26.826Z,11.67
2022-10-15T11:40:03.482Z,12.23
2022-10-15T11:42:36.308Z,12.57
2022-10-15T11:45:08.253Z,11.70
2022-10-15T11:47:41.156Z,10.53
2022-10-15T11:50:16.226Z,9.23
2022-10-15T11:52:50.467Z,6.40
2022-10-15T11:55:21.516Z,6.17
2022-10-15T11:57:52.602Z,7.83
2022-10-15T12:00:28.056Z,9.03
2022-10-15T12:02:56.672Z,5.80
2022-10-15T12:05:28.541Z,7.83
2022-10-15T12:07:57.465Z,6.70
2022-10-15T12:10:35.111Z,7.77
2022-10-15T12:13:06.210Z,11.30
2022-10-15T12:15:37.514Z,7.63
2022-10-15T12:18:12.308Z,6.93
2022-10-15T12:20:43.374Z,6.80
2022-10-15T12:23:24.103Z,6.30
2022-10-15T12:25:53.875Z,5.83
2022-10-15T12:28:25.728Z,5.23
2022-10-15T12:31:01.644Z,2.00
2022-10-15T12:33:52.146Z,4.67
2022-10-15T12:36:28.273Z,3.57
2022-10-15T12:39:00.804Z,4.30
2022-10-15T12:41:41.792Z,2.13
2022-10-15T12:44:17.071Z,4.63
2022-10-15T12:46:45.501Z,5.37
2022-10-15T12:49:34.539Z,3.07
2022-10-15T12:52:03.611Z,3.87
2022-10-15T12:54:36.328Z,2.00
2022-10-15T12:57:26.777Z,0.80
2022-10-15T12:59:58.149Z,0.50
2022-10-15T13:02:44.388Z,4.10
2022-10-15T13:05:26.103Z,2.27
2022-10-15T13:07:55.939Z,1.53
2022-10-15T13:10:26.580Z,1.47
2022-10-15T13:12:55.937Z,1.37
2022-10-15T13:15:27.124Z,1.10
2022-10-15T13:17:56.492Z,1.87
2022-10-15T13:20:31.194Z,3.90
2022-10-15T13:23:18.758Z,2.53
2022-10-15T13:26:14.428Z,3.10
2022-10-15T13:28:43.763Z,1.60
2022-10-15T13:31:17.692Z,2.27
2022-10-15T13:33:47.107Z,3.37
2022-10-15T13:36:20.115Z,5.13
2022-10-15T13:38:53.196Z,2.67
2022-10-15T13:41:25.015Z,1.00
2022-10-15T13:43:54.970Z,1.43
2022-10-15T13:46:26.690Z,1.30
2022-10-15T13:48:58.936Z,1.53
2022-10-15T13:51:30.609Z,2.90
2022-10-15T13:53:58.938Z,6.23
2022-10-15T13:56:27.893Z,0.80
2022-10-15T13:58:57.265Z,1.53
2022-10-15T14:01:27.829Z,2.73
2022-10-15T14:03:57.257Z,3.23
2022-10-15T14:06:26.668Z,3.37
2022-10-15T14:08:55.735Z,0.83
2022-10-15T14:11:24.593Z,2.13
2022-10-15T14:13:53.423Z,1.83
2022-10-15T14:16:23.780Z,1.00
2022-10-15T14:18:54.266Z,1.87
2022-10-15T14:21:28.736Z,4.03
2022-10-15T14:24:04.782Z,2.20
2022-10-15T14:26:33.335Z,2.47
2022-10-15T14:29:01.938Z,3.50
2022-10-15T14:31:34.882Z,0.50
2022-10-15T14:34:04.738Z,2.80
2022-10-15T14:36:33.802Z,2.80
2022-10-15T14:39:35.280Z,1.53
2022-10-15T14:42:04.358Z,2.67
2022-10-15T14:44:43.026Z,1.50
2022-10-15T14:47:19.542Z,1.93
2022-10-15T14:49:49.667Z,2.43
2022-10-15T14:52:20.530Z,3.40
2022-10-15T14:54:50.342Z,0.63
2022-10-15T14:57:20.815Z,3.10
2022-10-15T14:59:49.264Z,2.77
2022-10-15T15:02:18.271Z,0.50
2022-10-15T15:04:48.061Z,1.63
2022-10-15T15:07:19.980Z,4.40
2022-10-15T15:09:52.085Z,4.87
2022-10-15T15:12:24.240Z,1.73
2022-10-15T15:14:55.682Z,1.87
2022-10-15T15:17:24.815Z,3.10
2022-10-15T15:19:54.496Z,4.20
2022-10-15T15:22:27.837Z,2.50
2022-10-15T15:24:56.841Z,6.80
2022-10-15T15:27:26.831Z,1.67
2022-10-15T15:29:55.584Z,1.77
2022-10-15T15:32:24.779Z,3.37
2022-10-15T15:34:54.247Z,4.90
2022-10-15T15:37:24.797Z,8.00
2022-10-15T15:39:53.422Z,0.40
2022-10-15T15:42:22.972Z,0.70
2022-10-15T15:44:51.475Z,0.87
2022-10-15T15:47:20.454Z,0.63
2022-10-15T15:49:48.786Z,2.23
2022-10-15T15:52:18.948Z,0.70
2022-10-15T15:54:48.767Z,0.40
2022-10-15T15:57:17.169Z,2.03
2022-10-15T15:59:45.468Z,0.90
2022-10-15T16:02:14.130Z,1.03
2022-10-15T16:04:42.448Z,1.80
2022-10-15T16:07:13.357Z,0.63
2022-10-15T16:09:42.094Z,7.27
2022-10-15T16:12:12.429Z,2.73
2022-10-15T16:14:40.707Z,1.80
2022-10-15T16:17:09.065Z,10.57
2022-10-15T16:19:37.367Z,3.50
2022-10-15T16:22:05.841Z,2.77
2022-10-15T16:24:34.221Z,4.23
2022-10-15T16:27:02.511Z,4.03
2022-10-15T16:29:32.240Z,5.07
2022-10-15T16:32:00.535Z,5.40
2022-10-15T16:34:28.940Z,1.80
2022-10-15T16:36:57.351Z,2.77
2022-10-15T16:39:25.761Z,3.60
2022-10-15T16:41:54.071Z,6.20
2022-10-15T16:44:22.371Z,7.07
2022-10-15T16:46:52.101Z,2.87
2022-10-15T16:49:20.410Z,6.33
2022-10-15T16:51:48.744Z,3.03
2022-10-15T16:54:17.224Z,4.57
2022-10-15T16:56:49.105Z,6.73
2022-10-15T16:59:21.399Z,7.70
2022-10-15T17:01:49.814Z,7.23
2022-10-15T17:04:19.596Z,6.10
2022-10-15T17:06:47.961Z,5.30
2022-10-15T17:09:16.298Z,7.97
2022-10-15T17:11:46.894Z,4.70
2022-10-15T17:14:16.055Z,5.50
2022-10-15T17:16:45.395Z,5.00
2022-10-15T17:19:14.692Z,5.77
2022-10-15T17:21:46.919Z,7.50
2022-10-15T17:24:16.268Z,11.23
2022-10-15T17:26:45.346Z,14.90
2022-10-15T17:29:16.290Z,14.10
2022-10-15T17:31:44.879Z,11.23
2022-10-15T17:34:13.857Z,9.20
2022-10-15T17:36:45.522Z,10.53
2022-10-15T17:39:15.147Z,7.53
2022-10-15T17:41:43.677Z,10.17
2022-10-15T17:44:12.407Z,9.73
2022-10-15T17:46:41.246Z,11.10
2022-10-15T17:49:11.193Z,8.53
2022-10-15T17:51:39.822Z,1.87
2022-10-15T17:54:09.510Z,1.13
2022-10-15T17:56:39.314Z,4.63
2022-10-15T17:59:08.955Z,5.83
2022-10-15T18:01:57.168Z,4.97
2022-10-15T18:04:26.985Z,10.90
2022-10-15T18:06:55.320Z,7.63
2022-10-15T18:09:25.045Z,5.87
2022-10-15T18:11:53.291Z,12.00
2022-10-15T18:14:21.786Z,9.23
2022-10-15T18:16:50.240Z,8.00
2022-10-15T18:19:18.531Z,1.87
2022-10-15T18:21:49.550Z,10.33
2022-10-15T18:24:21.066Z,10.77
2022-10-15T18:26:50.936Z,4.60
2022-10-15T18:29:19.327Z,9.30
2022-10-15T18:31:48.424Z,9.90
2022-10-15T18:34:18.579Z,6.93
2022-10-15T18:36:46.919Z,1.20
2022-10-15T18:39:15.532Z,4.30
2022-10-15T18:44:20.779Z,4.40
2022-10-15T18:46:49.472Z,5.70
2022-10-15T18:49:18.869Z,8.50
2022-10-15T18:51:51.509Z,4.30
2022-10-15T18:54:19.850Z,8.17
2022-10-15T18:56:48.242Z,5.37
2022-10-15T18:59:18.156Z,8.87
2022-10-15T19:01:46.567Z,7.50
2022-10-15T19:04:16.607Z,10.80
2022-10-15T19:06:45.823Z,4.53
2022-10-15T19:09:15.003Z,6.87
2022-10-15T19:11:44.352Z,9.57
2022-10-15T19:14:13.146Z,5.90
2022-10-15T19:16:43.233Z,2.80
2022-10-15T19:19:15.577Z,9.43
2022-10-15T19:21:44.030Z,11.13
2022-10-15T19:24:12.778Z,3.30
2022-10-15T19:26:41.411Z,6.67
2022-10-15T19:29:10.013Z,12.47
2022-10-15T19:31:39.799Z,5.63
2022-10-15T19:34:09.784Z,10.70
2022-10-15T19:36:39.936Z,0.63
2022-10-15T19:39:09.027Z,7.43
2022-10-15T19:41:38.279Z,14.73
2022-10-15T19:44:08.170Z,6.50
2022-10-15T19:46:36.561Z,9.00
2022-10-15T19:49:05.140Z,6.93
2022-10-15T19:51:34.967Z,7.27
2022-10-15T19:54:03.288Z,7.03
2022-10-15T19:56:31.726Z,11.77
2022-10-15T19:59:00.936Z,6.27
2022-10-15T20:01:30.280Z,6.40
2022-10-15T20:04:03.203Z,8.67
2022-10-15T20:06:36.550Z,9.10
2022-10-15T20:09:05.013Z,9.30
2022-10-15T20:11:33.312Z,7.90
2022-10-15T20:14:01.690Z,16.17
2022-10-15T20:16:32.687Z,6.70
2022-10-15T20:19:02.567Z,11.10
2022-10-15T20:21:30.851Z,7.60
2022-10-15T20:24:03.857Z,11.20
2022-10-15T20:26:32.231Z,5.37
2022-10-15T20:29:00.634Z,11.97
2022-10-15T20:31:32.832Z,11.10
2022-10-15T20:34:01.929Z,7.30
2022-10-15T20:36:30.581Z,4.43
2022-10-15T20:39:01.676Z,8.70
2022-10-15T20:41:30.228Z,3.47
2022-10-15T20:43:58.800Z,5.27
2022-10-15T20:46:29.294Z,15.27
2022-10-15T20:48:58.778Z,6.07
2022-10-15T20:51:28.782Z,2.00
2022-10-15T20:53:57.408Z,2.73
2022-10-15T20:56:27.110Z,3.57
2022-10-15T20:58:55.621Z,6.23
2022-10-15T21:01:24.057Z,6.70
2022-10-15T21:03:52.467Z,7.53
2022-10-15T21:06:20.799Z,4.73
2022-10-15T21:08:49.128Z,5.60
2022-10-15T21:11:17.503Z,6.47
2022-10-15T21:13:47.268Z,2.60
2022-10-15T21:16:15.679Z,1.27
2022-10-15T21:18:44.057Z,5.70
2022-10-15T21:21:13.347Z,5.13
2022-10-15T21:23:43.218Z,7.20
2022-10-15T21:26:12.166Z,1.80
2022-10-15T21:28:40.621Z,7.57
2022-10-15T21:31:11.298Z,6.70
2022-10-15T21:33:40.044Z,6.67
2022-10-15T21:36:12.221Z,6.13
2022-10-15T21:38:40.563Z,6.73
2022-10-15T21:41:11.851Z,7.30
2022-10-15T21:43:40.251Z,5.47
2022-10-15T21:46:10.781Z,5.33
2022-10-15T21:48:39.433Z,4.87
2022-10-15T21:51:10.688Z,4.37
2022-10-15T21:53:39.222Z,3.87
2022-10-15T21:56:08.140Z,6.47
2022-10-15T21:58:37.908Z,6.67
2022-10-15T22:01:14.509Z,7.83
2022-10-15T22:03:45.692Z,8.23
2022-10-15T22:06:14.291Z,7.17
2022-10-15T22:08:42.735Z,4.47
2022-10-15T22:11:15.205Z,5.10
2022-10-15T22:13:44.625Z,5.27
2022-10-15T22:16:14.956Z,7.33
2022-10-15T22:18:43.559Z,3.00
2022-10-15T22:21:15.727Z,3.97
2022-10-15T22:23:44.719Z,6.37
2022-10-15T22:26:13.337Z,3.50
2022-10-15T22:28:41.935Z,5.10
2022-10-15T22:31:12.289Z,3.90
2022-10-15T22:33:42.551Z,0.93
2022-10-15T22:36:13.453Z,4.70
2022-10-15T22:38:41.811Z,3.33
2022-10-15T22:41:10.810Z,7.67
2022-10-15T22:43:39.209Z,7.33
2022-10-15T22:46:07.777Z,4.37
2022-10-15T22:48:36.479Z,7.17
2022-10-15T22:51:06.979Z,5.13
2022-10-15T22:53:35.438Z,6.47
2022-10-15T22:56:04.978Z,4.47
2022-10-15T22:58:33.892Z,5.40
2022-10-15T23:01:08.031Z,5.30
2022-10-15T23:03:36.442Z,4.93
2022-10-15T23:06:06.610Z,1.17
2022-10-15T23:08:35.437Z,5.97
2022-10-15T23:11:09.411Z,3.47
2022-10-15T23:13:38.523Z,4.57
2022-10-15T23:16:07.538Z,4.77
2022-10-15T23:18:35.936Z,4.97
2022-10-15T23:21:06.847Z,4.67
2022-10-15T23:23:35.307Z,3.37
2022-10-15T23:26:03.721Z,3.03
2022-10-15T23:28:32.138Z,3.67
2022-10-15T23:31:00.476Z,7.57
2022-10-15T23:33:28.836Z,5.87
2022-10-15T23:36:00.901Z,1.60
2022-10-15T23:38:30.610Z,4.00
2022-10-15T23:41:02.601Z,3.53
2022-10-15T23:43:31.027Z,1.87
2022-10-15T23:45:59.707Z,2.83
2022-10-15T23:48:28.210Z,4.60
2022-10-15T23:51:00.873Z,3.27
2022-10-15T23:53:34.254Z,2.33
2022-10-15T23:56:03.631Z,2.77
2022-10-15T23:58:33.055Z,6.10
